Time;durP1;ratioP1;P1;durP2;ratioP2;P2;SDS_P1;SDS_P2;PMS_P1;PMS_P2;Temp;Humidity;BMP_temperature;BMP_pressure;BME280_temperature;BME280_humidity;BME280_pressure;Samples;Min_cycle;Max_cycle;Signal;HPM_P1;HPM_P2
2023/09/08 00:01:03;;;;;;;10.82;6.47;;;;;;;20.60;75.71;101563.59;5030911;28;20105;-82
2023/09/08 00:03:29;;;;;;;9.25;6.22;;;;;;;20.55;75.32;101563.25;5028903;28;20025;-83
2023/09/08 00:05:54;;;;;;;8.90;6.55;;;;;;;20.56;75.48;101564.09;5030449;28;20045;-82
2023/09/08 00:08:23;;;;;;;8.02;6.40;;;;;;;20.53;76.30;101562.56;5030777;28;20543;-82
2023/09/08 00:10:49;;;;;;;13.68;6.60;;;;;;;20.53;75.66;101575.09;5028113;28;20033;-82
2023/09/08 00:13:14;;;;;;;9.60;6.10;;;;;;;20.51;76.07;101567.25;5030841;28;20030;-82
2023/09/08 00:15:40;;;;;;;9.95;6.43;;;;;;;20.48;75.52;101569.41;5025524;28;20033;-83
2023/09/08 00:18:05;;;;;;;10.48;6.20;;;;;;;20.47;75.81;101573.91;5020716;28;20033;-83
2023/09/08 00:20:30;;;;;;;11.82;6.20;;;;;;;20.43;76.17;101575.22;5030001;28;20025;-82
2023/09/08 00:22:56;;;;;;;8.48;6.93;;;;;;;20.38;76.72;101577.50;5029778;28;20033;-82
2023/09/08 00:25:21;;;;;;;8.10;6.25;;;;;;;20.34;76.85;101570.78;5029942;28;20021;-83
2023/09/08 00:27:49;;;;;;;8.20;6.65;;;;;;;20.34;77.74;101576.13;5029842;28;20462;-82
2023/09/08 00:30:14;;;;;;;10.02;6.82;;;;;;;20.31;76.98;101576.44;5040587;28;20569;-82
2023/09/08 00:32:39;;;;;;;10.70;6.03;;;;;;;20.31;77.54;101576.44;5024382;28;20029;-82
2023/09/08 00:35:12;;;;;;;8.93;6.53;;;;;;;20.27;77.53;101575.94;5011622;28;20493;-82
2023/09/08 00:37:40;;;;;;;8.05;6.57;;;;;;;20.23;78.14;101582.59;5028263;28;20053;-83
2023/09/08 00:40:12;;;;;;;8.27;6.50;;;;;;;20.20;78.05;101569.56;5030329;28;20104;-83
2023/09/08 00:42:38;;;;;;;7.82;6.63;;;;;;;20.22;78.06;101574.75;5030271;28;20029;-82
2023/09/08 00:45:04;;;;;;;8.75;7.13;;;;;;;20.18;78.22;101576.88;5029746;28;20018;-83
2023/09/08 00:47:29;;;;;;;8.00;7.18;;;;;;;20.12;79.01;101574.84;5026120;28;20053;-83
2023/09/08 00:49:54;;;;;;;7.05;6.35;;;;;;;20.09;78.37;101577.00;5026248;28;20037;-82
2023/09/08 00:52:20;;;;;;;8.35;6.63;;;;;;;20.12;78.34;101568.69;5029657;28;20033;-82
2023/09/08 00:54:45;;;;;;;7.50;6.60;;;;;;;20.07;78.55;101562.97;5028818;28;20096;-82
2023/09/08 00:57:11;;;;;;;8.30;7.18;;;;;;;20.01;79.04;101573.28;5029946;28;20087;-82
2023/09/08 00:59:40;;;;;;;9.63;7.20;;;;;;;20.01;79.26;101565.28;5028500;28;20108;-82
2023/09/08 01:02:05;;;;;;;10.15;6.63;;;;;;;20.01;79.56;101572.44;5029537;28;20032;-82
2023/09/08 01:04:33;;;;;;;9.73;6.57;;;;;;;19.92;79.67;101565.34;5023730;28;20021;-82
2023/09/08 01:06:59;;;;;;;7.57;6.40;;;;;;;19.88;80.25;101567.50;5027583;28;20025;-82
2023/09/08 01:09:24;;;;;;;7.88;6.88;;;;;;;19.82;80.78;101564.63;5029851;28;20079;-82
2023/09/08 01:11:50;;;;;;;8.10;6.82;;;;;;;19.84;80.08;101571.50;5026726;28;20472;-83
2023/09/08 01:14:19;;;;;;;8.20;6.80;;;;;;;19.76;80.91;101576.78;5027797;28;20044;-83
2023/09/08 01:16:45;;;;;;;7.43;6.40;;;;;;;19.76;81.34;101568.75;5029788;28;20035;-83
2023/09/08 01:19:13;;;;;;;8.85;6.65;;;;;;;19.72;81.03;101564.72;5028390;28;20034;-83
2023/09/08 01:21:52;;;;;;;11.00;7.22;;;;;;;19.67;81.25;101572.38;5026436;28;20026;-83
2023/09/08 01:24:26;;;;;;;7.72;6.78;;;;;;;19.65;81.52;101566.34;5026784;28;20398;-83
2023/09/08 01:26:53;;;;;;;7.45;6.68;;;;;;;19.62;82.74;101574.66;5027369;28;20067;-83
2023/09/08 01:29:19;;;;;;;7.78;6.53;;;;;;;19.60;82.94;101571.28;5039516;28;20120;-83
2023/09/08 01:31:45;;;;;;;8.57;7.03;;;;;;;19.54;83.42;101574.56;5049190;28;20025;-82
2023/09/08 01:34:11;;;;;;;7.20;6.50;;;;;;;19.51;83.10;101580.19;5049460;28;20040;-83
2023/09/08 01:36:40;;;;;;;8.07;7.25;;;;;;;19.40;83.59;101582.13;5041139;28;20028;-83
2023/09/08 01:39:05;;;;;;;9.05;6.95;;;;;;;19.34;84.21;101577.38;5029801;28;20088;-83
2023/09/08 01:41:33;;;;;;;8.65;6.72;;;;;;;19.31;84.83;101580.38;5026397;28;20030;-83
2023/09/08 01:44:00;;;;;;;8.13;6.72;;;;;;;19.29;84.87;101579.69;5027550;28;20037;-83
2023/09/08 01:46:25;;;;;;;8.65;7.05;;;;;;;19.22;85.18;101581.28;5030081;28;20056;-82
2023/09/08 01:48:51;;;;;;;7.65;6.95;;;;;;;19.08;85.89;101576.44;5031739;28;20021;-83
2023/09/08 01:51:16;;;;;;;7.97;7.18;;;;;;;19.03;86.09;101578.72;5030548;28;20025;-83
2023/09/08 01:53:44;;;;;;;9.75;7.20;;;;;;;18.98;86.59;101575.69;5029363;28;20048;-83
2023/09/08 01:56:10;;;;;;;8.32;7.50;;;;;;;18.88;87.45;101569.56;5046203;28;20565;-83
2023/09/08 01:58:35;;;;;;;10.95;7.78;;;;;;;18.89;87.33;101561.41;5031860;28;20108;-83
2023/09/08 02:01:05;;;;;;;7.65;6.82;;;;;;;18.85;87.67;101565.38;5031499;28;20937;-84
2023/09/08 02:03:33;;;;;;;10.18;7.25;;;;;;;18.80;87.54;101562.28;5031617;28;20112;-84
2023/09/08 02:05:59;;;;;;;8.10;7.15;;;;;;;18.81;88.03;101566.63;5030548;28;20123;-83
2023/09/08 02:08:24;;;;;;;8.77;7.88;;;;;;;18.69;88.57;101571.34;5028936;28;20068;-82
2023/09/08 02:10:49;;;;;;;8.55;7.70;;;;;;;18.71;88.76;101572.03;5023979;28;20029;-82
2023/09/08 02:13:15;;;;;;;7.90;7.15;;;;;;;18.67;89.32;101567.16;5008735;28;20041;-82
2023/09/08 02:15:40;;;;;;;9.77;7.32;;;;;;;18.65;89.06;101574.47;5025178;28;20543;-82
2023/09/08 02:18:10;;;;;;;9.98;7.45;;;;;;;18.59;89.58;101570.53;5028121;28;20045;-82
2023/09/08 02:20:36;;;;;;;9.10;7.60;;;;;;;18.52;89.85;101569.44;5029155;28;20029;-82
2023/09/08 02:23:06;;;;;;;9.82;7.82;;;;;;;18.39;90.24;101568.91;5027569;28;20017;-82
2023/09/08 02:25:32;;;;;;;8.68;7.50;;;;;;;18.36;90.54;101563.88;5027704;28;20040;-82
2023/09/08 02:27:57;;;;;;;9.63;7.70;;;;;;;18.31;90.85;101566.16;5015993;28;20025;-82
2023/09/08 02:30:22;;;;;;;10.13;7.45;;;;;;;18.23;91.39;101558.06;5048674;28;20099;-83
2023/09/08 02:32:48;;;;;;;8.88;7.68;;;;;;;18.24;91.93;101549.91;5046383;28;20029;-83
2023/09/08 02:35:13;;;;;;;8.65;7.75;;;;;;;18.25;91.79;101556.91;5038823;28;20415;-83
2023/09/08 02:37:39;;;;;;;9.27;7.80;;;;;;;18.17;91.97;101555.00;5026986;28;20120;-82
2023/09/08 02:40:06;;;;;;;8.23;7.40;;;;;;;18.15;92.40;101556.97;5026597;28;20033;-83
2023/09/08 02:42:31;;;;;;;8.38;7.45;;;;;;;18.06;92.49;101549.84;5026464;28;20022;-83
2023/09/08 02:44:56;;;;;;;7.88;7.15;;;;;;;18.09;92.68;101557.53;5023908;28;20069;-82
2023/09/08 02:47:22;;;;;;;8.45;7.70;;;;;;;18.03;93.37;101557.28;5026407;28;20055;-83
2023/09/08 02:49:47;;;;;;;8.02;7.15;;;;;;;18.00;93.21;101558.38;5027458;28;20017;-82
2023/09/08 02:52:12;;;;;;;8.82;7.90;;;;;;;17.97;93.29;101557.84;5028604;28;20060;-82
2023/09/08 02:54:38;;;;;;;8.95;7.90;;;;;;;17.91;93.69;101559.25;5037985;28;20025;-82
2023/09/08 02:57:03;;;;;;;9.73;7.75;;;;;;;17.87;94.04;101563.19;5043603;28;20144;-82
2023/09/08 02:59:29;;;;;;;10.00;8.00;;;;;;;17.77;94.10;101551.72;5028083;28;20040;-82
2023/09/08 03:01:54;;;;;;;9.75;8.10;;;;;;;17.74;94.44;101558.19;5024224;28;20057;-82
2023/09/08 03:04:19;;;;;;;9.27;8.00;;;;;;;17.68;95.35;101564.06;5028828;28;20370;-82
2023/09/08 03:06:45;;;;;;;17.10;8.30;;;;;;;17.63;95.81;101554.81;5027919;28;20049;-83
2023/09/08 03:09:10;;;;;;;8.05;7.35;;;;;;;17.62;95.77;101558.47;5032137;28;20036;-83
2023/09/08 03:11:37;;;;;;;9.13;7.88;;;;;;;17.57;96.05;101558.00;5032156;28;20500;-83
2023/09/08 03:14:02;;;;;;;9.15;7.82;;;;;;;17.54;96.37;101559.97;5029526;28;20504;-83
2023/09/08 03:16:28;;;;;;;11.15;8.10;;;;;;;17.50;96.38;101557.75;5047014;28;20053;-83
2023/09/08 03:18:53;;;;;;;9.02;8.13;;;;;;;17.43;96.58;101554.81;5027170;28;20021;-84
2023/09/08 03:21:19;;;;;;;8.77;7.45;;;;;;;17.43;96.70;101562.78;5031133;28;20037;-83
2023/09/08 03:23:45;;;;;;;9.07;8.20;;;;;;;17.37;97.18;101555.38;5031679;28;20079;-83
2023/09/08 03:26:11;;;;;;;9.25;8.38;;;;;;;17.35;97.70;101557.34;5033942;28;20029;-83
2023/09/08 03:28:42;;;;;;;9.15;8.25;;;;;;;17.34;97.74;101555.66;5036288;28;20027;-83
2023/09/08 03:31:10;;;;;;;8.95;8.05;;;;;;;17.30;97.98;101556.91;5031813;28;20428;-83
2023/09/08 03:33:35;;;;;;;8.40;7.53;;;;;;;17.37;97.19;101555.38;5030485;28;20032;-83
2023/09/08 03:36:01;;;;;;;8.98;8.18;;;;;;;17.28;97.60;101561.53;5029698;28;20061;-83
2023/09/08 03:38:26;;;;;;;8.27;7.43;;;;;;;17.30;97.74;101564.06;5030244;28;20474;-83
2023/09/08 03:40:51;;;;;;;9.02;8.13;;;;;;;17.26;98.05;101558.19;5030851;28;20116;-83
2023/09/08 03:43:17;;;;;;;10.23;8.05;;;;;;;17.20;98.51;101550.72;5030736;28;20045;-84
2023/09/08 03:45:42;;;;;;;10.77;8.40;;;;;;;17.14;98.74;101551.28;5030244;28;20529;-83
2023/09/08 03:48:10;;;;;;;11.82;8.68;;;;;;;17.09;99.46;101558.84;5031245;28;20565;-83
2023/09/08 03:50:36;;;;;;;10.18;8.50;;;;;;;17.07;99.99;101551.00;5026422;28;20462;-83
2023/09/08 03:53:01;;;;;;;9.32;8.40;;;;;;;17.05;99.72;101544.16;5011249;28;20048;-83
2023/09/08 03:55:27;;;;;;;10.27;8.38;;;;;;;17.03;99.67;101548.75;5030262;28;20037;-84
2023/09/08 03:57:52;;;;;;;9.82;7.90;;;;;;;16.99;99.99;101550.03;5031049;28;20029;-83
2023/09/08 04:00:22;;;;;;;8.90;8.02;;;;;;;17.05;99.66;101546.81;5012578;28;20109;-83
2023/09/08 04:02:51;;;;;;;9.38;8.35;;;;;;;17.00;100.00;101549.03;5029399;28;20026;-83
2023/09/08 04:05:16;;;;;;;8.95;8.10;;;;;;;16.96;100.00;101544.97;5029943;28;20056;-83
2023/09/08 04:07:42;;;;;;;9.23;8.32;;;;;;;16.99;100.00;101544.72;5016606;28;20061;-83
2023/09/08 04:10:10;;;;;;;14.57;8.63;;;;;;;16.90;100.00;101547.22;5014426;28;20033;-83
2023/09/08 04:12:36;;;;;;;10.10;8.32;;;;;;;16.89;100.00;101545.53;5032055;28;20029;-83
2023/09/08 04:15:02;;;;;;;10.00;8.90;;;;;;;16.88;100.00;101540.34;5030251;28;20036;-83
2023/09/08 04:17:27;;;;;;;10.65;9.23;;;;;;;16.84;100.00;101538.94;5045791;28;20029;-83
2023/09/08 04:19:52;;;;;;;9.88;8.82;;;;;;;16.91;100.00;101540.91;5030208;28;20101;-84
2023/09/08 04:22:18;;;;;;;10.18;9.05;;;;;;;16.91;100.00;101548.91;5029112;28;20045;-83
2023/09/08 04:24:43;;;;;;;9.75;8.88;;;;;;;16.83;100.00;101540.78;5025448;28;20033;-83
2023/09/08 04:27:10;;;;;;;10.65;8.93;;;;;;;16.85;100.00;101551.25;5029886;28;20630;-83
2023/09/08 04:29:35;;;;;;;10.70;8.70;;;;;;;16.88;100.00;101541.19;5045239;28;20105;-83
2023/09/08 04:32:08;;;;;;;10.43;9.27;;;;;;;16.85;100.00;101538.81;5013445;28;20892;-83
2023/09/08 04:34:34;;;;;;;10.55;9.55;;;;;;;16.83;100.00;101530.13;5010978;28;20021;-83
2023/09/08 04:37:00;;;;;;;10.60;9.48;;;;;;;16.76;100.00;101534.28;5011525;28;20481;-84
2023/09/08 04:39:25;;;;;;;11.23;9.65;;;;;;;16.79;100.00;101534.03;5029641;28;20027;-83
2023/09/08 04:41:50;;;;;;;9.85;8.93;;;;;;;16.84;100.00;101537.13;5028821;28;20025;-84
2023/09/08 04:44:16;;;;;;;12.30;9.63;;;;;;;16.83;100.00;101538.13;5029463;28;20028;-83
2023/09/08 04:46:45;;;;;;;10.65;9.45;;;;;;;16.77;100.00;101537.78;5027250;28;20064;-83
2023/09/08 04:49:11;;;;;;;10.73;9.60;;;;;;;16.77;100.00;101535.97;5021054;28;20301;-83
2023/09/08 04:51:36;;;;;;;10.90;9.63;;;;;;;16.77;100.00;101537.78;5021126;28;20025;-83
2023/09/08 04:54:02;;;;;;;11.05;9.95;;;;;;;16.77;100.00;101540.44;5031502;28;20041;-83
2023/09/08 04:56:27;;;;;;;10.13;9.13;;;;;;;16.75;100.00;101539.75;5049625;28;20036;-83
2023/09/08 04:58:54;;;;;;;12.50;9.25;;;;;;;16.73;100.00;101533.72;5035363;28;20036;-83
2023/09/08 05:01:20;;;;;;;11.25;9.85;;;;;;;16.73;100.00;101539.03;5021669;28;20069;-83
2023/09/08 05:03:45;;;;;;;10.73;9.57;;;;;;;16.71;100.00;101544.50;5029975;28;20111;-84
2023/09/08 05:06:11;;;;;;;12.65;9.75;;;;;;;16.69;100.00;101546.44;5018471;28;20034;-83
2023/09/08 05:08:36;;;;;;;10.75;9.73;;;;;;;16.65;100.00;101541.53;5011373;28;20025;-84
2023/09/08 05:11:01;;;;;;;11.35;10.02;;;;;;;16.68;100.00;101550.09;5010774;28;20101;-83
2023/09/08 05:13:27;;;;;;;11.50;10.15;;;;;;;16.67;100.00;101551.06;5025131;28;20592;-83
2023/09/08 05:15:59;;;;;;;11.40;10.20;;;;;;;16.69;100.00;101551.78;5010656;28;20025;-83
2023/09/08 05:18:25;;;;;;;;;;;;;;;16.80;100.00;101545.50;5026799;28;20034;-83
2023/09/08 05:20:50;;;;;;;11.75;10.48;;;;;;;16.76;100.00;101555.56;5026813;28;20351;-83
2023/09/08 05:23:15;;;;;;;12.20;11.00;;;;;;;16.77;100.00;101548.44;5026910;28;20021;-83
2023/09/08 05:25:44;;;;;;;12.48;10.70;;;;;;;16.79;100.00;101559.75;5028893;28;20151;-83
2023/09/08 05:28:10;;;;;;;12.10;10.90;;;;;;;16.82;100.00;101555.03;5031114;28;20029;-83
2023/09/08 05:30:35;;;;;;;11.85;10.68;;;;;;;16.86;100.00;101543.16;5048499;28;20384;-83
2023/09/08 05:33:01;;;;;;;13.90;11.95;;;;;;;16.88;100.00;101554.50;5047856;28;20628;-83
2023/09/08 05:35:27;;;;;;;13.90;11.55;;;;;;;16.92;100.00;101550.56;5048481;28;20106;-83
2023/09/08 05:37:52;;;;;;;15.75;11.95;;;;;;;16.98;100.00;101553.66;5048933;28;20021;-84
2023/09/08 05:40:18;;;;;;;14.57;11.63;;;;;;;17.01;100.00;101553.38;5027886;28;20029;-83
2023/09/08 05:42:44;;;;;;;13.98;11.73;;;;;;;17.07;100.00;101555.50;5028517;28;20053;-83
2023/09/08 05:45:09;;;;;;;17.10;10.98;;;;;;;17.08;100.00;101560.66;5028529;28;20485;-84
2023/09/08 05:47:36;;;;;;;18.70;11.43;;;;;;;17.14;100.00;101567.25;5027155;28;20132;-83
2023/09/08 05:50:01;;;;;;;14.35;11.85;;;;;;;17.17;100.00;101564.31;5028372;28;20041;-83
2023/09/08 05:52:28;;;;;;;16.48;12.05;;;;;;;17.21;100.00;101560.38;5029006;28;20246;-83
2023/09/08 05:54:53;;;;;;;14.93;11.27;;;;;;;17.26;100.00;101566.16;5024723;28;20533;-83
2023/09/08 05:57:19;;;;;;;14.32;11.90;;;;;;;17.35;100.00;101565.31;5008672;28;20022;-83
2023/09/08 05:59:44;;;;;;;15.60;11.38;;;;;;;17.39;100.00;101564.06;5025666;28;20116;-83
2023/09/08 06:02:10;;;;;;;14.90;11.35;;;;;;;17.45;100.00;101558.16;5022936;28;20037;-84
2023/09/08 06:04:35;;;;;;;14.13;11.73;;;;;;;17.50;100.00;101560.41;5029189;28;20429;-83
2023/09/08 06:07:00;;;;;;;15.18;11.95;;;;;;;17.55;99.64;101564.31;5028609;28;20063;-84
2023/09/08 06:09:26;;;;;;;14.27;11.63;;;;;;;17.61;99.37;101557.63;5043085;28;20033;-84
2023/09/08 06:11:51;;;;;;;18.02;11.15;;;;;;;17.67;99.24;101558.91;5022957;28;20546;-84
2023/09/08 06:14:17;;;;;;;15.43;11.38;;;;;;;17.71;99.20;101566.44;5025607;28;20026;-83
2023/09/08 06:16:42;;;;;;;12.70;10.98;;;;;;;17.75;99.42;101570.50;5014600;28;20025;-83
2023/09/08 06:19:12;;;;;;;13.75;11.18;;;;;;;17.81;99.33;101574.41;5043957;28;20029;-84
2023/09/08 06:21:37;;;;;;;15.15;10.65;;;;;;;17.83;99.66;101572.44;5030270;28;20040;-84
2023/09/08 06:24:03;;;;;;;13.77;11.07;;;;;;;17.90;99.31;101572.72;5028363;28;20021;-83
2023/09/08 06:26:28;;;;;;;12.10;10.82;;;;;;;17.94;98.93;101574.94;5027240;28;20465;-84
2023/09/08 06:28:54;;;;;;;14.15;10.73;;;;;;;17.99;98.54;101571.84;5024368;28;20440;-83
2023/09/08 06:31:22;;;;;;;19.80;11.50;;;;;;;18.04;99.05;101581.13;5026207;28;20033;-84
2023/09/08 06:33:48;;;;;;;15.80;11.48;;;;;;;18.10;98.19;101569.88;5028009;28;20037;-84
2023/09/08 06:36:13;;;;;;;14.73;11.18;;;;;;;18.16;98.26;101574.63;5027104;28;20022;-83
2023/09/08 06:38:38;;;;;;;16.77;11.85;;;;;;;18.23;97.63;101579.38;5027340;28;20370;-84
2023/09/08 06:41:11;;;;;;;16.88;11.38;;;;;;;18.29;97.37;101578.78;5027828;28;20107;-84
2023/09/08 06:43:36;;;;;;;;;;;;;;;18.36;96.74;101583.38;5025084;28;20136;-84
2023/09/08 06:46:02;;;;;;;15.30;11.43;;;;;;;18.46;96.82;101575.38;5027015;28;19940;-84
2023/09/08 06:48:30;;;;;;;15.18;10.98;;;;;;;18.55;96.49;101581.63;5027727;28;20072;-84
2023/09/08 06:50:56;;;;;;;12.40;11.10;;;;;;;18.67;95.84;101583.97;5027026;28;20095;-84
2023/09/08 06:53:22;;;;;;;17.63;11.05;;;;;;;18.82;95.54;101583.50;5031050;28;20033;-83
2023/09/08 06:55:48;;;;;;;16.55;10.98;;;;;;;18.94;94.89;101584.97;5049776;28;20067;-84
2023/09/08 06:58:14;;;;;;;12.57;10.90;;;;;;;19.07;94.25;101580.94;5035204;28;20052;-83
2023/09/08 07:00:40;;;;;;;17.00;11.23;;;;;;;19.25;93.74;101588.16;5027613;28;20037;-82
2023/09/08 07:03:06;;;;;;;12.35;11.05;;;;;;;19.44;92.75;101587.13;5026630;28;20029;-83
2023/09/08 07:05:31;;;;;;;14.82;11.10;;;;;;;19.63;92.49;101589.69;5011491;28;20106;-82
2023/09/08 07:07:56;;;;;;;14.35;9.80;;;;;;;19.86;91.14;101584.69;5012009;28;20181;-83
2023/09/08 07:10:22;;;;;;;14.63;10.55;;;;;;;20.10;90.10;101589.38;5011146;28;20518;-83
2023/09/08 07:12:48;;;;;;;11.68;10.27;;;;;;;20.28;88.93;101576.78;5029457;28;20509;-83
2023/09/08 07:15:13;;;;;;;12.05;9.90;;;;;;;20.52;86.89;101584.13;5031862;28;20029;-83
2023/09/08 07:17:39;;;;;;;11.88;10.10;;;;;;;20.67;85.01;101581.66;5030130;28;20021;-83
2023/09/08 07:20:05;;;;;;;12.82;9.98;;;;;;;20.89;83.45;101583.78;5023547;28;20069;-83
2023/09/08 07:22:33;;;;;;;13.38;10.13;;;;;;;21.16;82.78;101583.47;5031362;28;20505;-83
2023/09/08 07:24:58;;;;;;;12.52;9.50;;;;;;;21.40;81.33;101579.22;5031575;28;20033;-83
2023/09/08 07:27:26;;;;;;;12.43;8.82;;;;;;;21.56;80.32;101590.75;5030571;28;20367;-83
2023/09/08 07:29:52;;;;;;;12.55;9.10;;;;;;;21.80;78.42;101587.25;5046939;28;20362;-83
2023/09/08 07:32:22;;;;;;;9.88;8.50;;;;;;;21.97;77.93;101588.06;5036909;28;20040;-80
2023/09/08 07:34:54;;;;;;;10.48;8.52;;;;;;;22.24;76.62;101589.56;5028942;28;20362;-80
2023/09/08 07:37:20;;;;;;;13.95;9.13;;;;;;;22.48;76.34;101589.50;5030077;28;20049;-80
2023/09/08 07:39:46;;;;;;;13.02;8.23;;;;;;;22.64;75.65;101595.78;5030296;28;20124;-80
2023/09/08 07:42:11;;;;;;;12.40;8.05;;;;;;;22.86;74.02;101588.88;5031893;28;20036;-80
2023/09/08 07:44:36;;;;;;;10.80;8.45;;;;;;;23.08;72.68;101588.06;5032740;28;20017;-80
2023/09/08 07:47:02;;;;;;;12.13;8.15;;;;;;;23.22;72.59;101586.47;5031307;28;20072;-80
2023/09/08 07:49:28;;;;;;;10.55;7.65;;;;;;;23.46;71.71;101580.91;5031847;28;20114;-80
2023/09/08 07:51:53;;;;;;;10.15;7.53;;;;;;;23.72;71.39;101591.31;5027548;28;20191;-80
2023/09/08 07:54:21;;;;;;;10.20;8.20;;;;;;;23.85;69.43;101586.16;5022385;28;20053;-83
2023/09/08 07:56:47;;;;;;;12.77;7.75;;;;;;;23.95;69.32;101577.81;5025901;28;20052;-82
2023/09/08 07:59:12;;;;;;;10.40;6.93;;;;;;;24.21;68.12;101574.69;5029371;28;20440;-83
2023/09/08 08:01:39;;;;;;;9.65;6.97;;;;;;;24.31;67.24;101568.03;5045409;28;20021;-83
2023/09/08 08:04:04;;;;;;;8.93;7.03;;;;;;;24.52;67.28;101567.31;5030182;28;20022;-83
2023/09/08 08:06:30;;;;;;;10.82;7.13;;;;;;;24.70;66.08;101569.59;5046696;28;20045;-83
2023/09/08 08:08:57;;;;;;;10.02;7.05;;;;;;;24.76;65.01;101579.59;5029559;28;20494;-83
2023/09/08 08:11:23;;;;;;;10.55;6.80;;;;;;;24.89;65.08;101571.69;5028608;28;20037;-83
2023/09/08 08:13:56;;;;;;;10.27;6.60;;;;;;;25.08;64.99;101566.75;5028345;28;20029;-83
2023/09/08 08:16:21;;;;;;;9.82;6.53;;;;;;;25.33;65.56;101564.53;5029127;28;20036;-83
2023/09/08 08:18:47;;;;;;;12.77;6.65;;;;;;;25.54;63.51;101569.88;5031043;28;20529;-82
2023/09/08 08:21:13;;;;;;;9.43;6.45;;;;;;;25.54;64.03;101570.72;5030465;28;20022;-83
2023/09/08 08:23:38;;;;;;;9.40;6.03;;;;;;;25.84;62.34;101578.66;5029819;28;20116;-82
2023/09/08 08:26:04;;;;;;;10.38;6.18;;;;;;;26.00;61.68;101577.53;5050446;28;20057;-83
2023/09/08 08:28:29;;;;;;;11.70;6.00;;;;;;;26.16;61.37;101580.78;5051314;28;20460;-82
2023/09/08 08:30:55;;;;;;;7.10;6.35;;;;;;;26.16;61.27;101580.78;5041383;28;20030;-83
2023/09/08 08:33:25;;;;;;;7.07;6.38;;;;;;;26.29;61.59;101581.88;5048807;28;20025;-83
2023/09/08 08:35:52;;;;;;;9.20;6.05;;;;;;;26.43;60.65;101572.88;5029951;28;20029;-83
2023/09/08 08:38:17;;;;;;;6.93;5.60;;;;;;;26.61;59.95;101578.53;5038134;28;20411;-83
2023/09/08 08:40:42;;;;;;;8.90;5.70;;;;;;;26.88;59.02;101578.66;5032547;28;20112;-83
2023/09/08 08:43:08;;;;;;;8.40;6.10;;;;;;;26.79;58.14;101577.97;5035268;28;20029;-83
2023/09/08 08:45:36;;;;;;;7.55;5.97;;;;;;;26.91;57.57;101581.78;5041811;28;20485;-83
2023/09/08 08:48:10;;;;;;;9.90;5.90;;;;;;;26.94;57.58;101588.66;5041280;28;20057;-83
2023/09/08 08:50:37;;;;;;;10.38;6.03;;;;;;;27.04;57.55;101581.84;5040485;28;20083;-83
2023/09/08 08:53:03;;;;;;;7.47;5.65;;;;;;;27.05;57.16;101574.56;5047727;28;20036;-83
2023/09/08 08:55:30;;;;;;;8.68;5.80;;;;;;;27.31;57.61;101579.22;5040458;28;20029;-83
2023/09/08 08:58:02;;;;;;;7.22;5.93;;;;;;;27.22;56.36;101583.13;5043916;28;20086;-83
2023/09/08 09:00:28;;;;;;;;;;;;;;;27.58;60.35;101578.16;5026897;28;20356;-83
2023/09/08 09:02:57;;;;;;;7.07;5.40;;;;;;;27.62;55.90;101567.81;5028726;28;19936;-83
2023/09/08 09:05:24;;;;;;;6.97;5.80;;;;;;;27.78;55.61;101575.50;5030394;28;20032;-82
2023/09/08 09:07:53;;;;;;;7.88;4.97;;;;;;;27.99;55.77;101572.56;5040591;28;20115;-83
2023/09/08 09:10:19;;;;;;;11.02;5.22;;;;;;;28.21;54.50;101569.63;5035827;28;20044;-83
2023/09/08 09:12:44;;;;;;;6.85;5.10;;;;;;;28.33;53.47;101565.22;5046978;28;20047;-83
2023/09/08 09:15:11;;;;;;;7.35;5.00;;;;;;;28.35;53.26;101568.56;5044480;28;20040;-82
2023/09/08 09:17:36;;;;;;;6.55;5.13;;;;;;;28.23;53.28;101564.81;5029499;28;20112;-83
2023/09/08 09:20:20;;;;;;;10.63;6.00;;;;;;;28.47;54.87;101563.34;5035896;28;20112;-83
2023/09/08 09:22:49;;;;;;;11.88;5.20;;;;;;;28.40;52.59;101568.75;5027794;28;20474;-83
2023/09/08 09:25:22;;;;;;;5.80;4.97;;;;;;;28.49;54.04;101564.78;5049609;28;20024;-83
2023/09/08 09:27:55;;;;;;;6.97;5.68;;;;;;;28.65;52.72;101564.28;5037479;28;20033;-83
2023/09/08 09:30:22;;;;;;;11.02;5.38;;;;;;;28.68;52.20;101558.44;5036562;28;20141;-83
2023/09/08 09:32:50;;;;;;;6.82;5.15;;;;;;;28.96;51.36;101568.97;5036838;28;20485;-82
2023/09/08 09:35:16;;;;;;;13.15;5.22;;;;;;;29.12;52.38;101558.63;5032769;28;20037;-83
2023/09/08 09:37:42;;;;;;;7.65;5.30;;;;;;;29.13;53.66;101558.41;5047060;28;20540;-83
2023/09/08 09:40:10;;;;;;;9.93;5.45;;;;;;;29.29;50.09;101559.78;5044074;28;20104;-82
2023/09/08 09:42:46;;;;;;;8.35;5.20;;;;;;;29.39;50.12;101567.44;5033521;28;20036;-82
2023/09/08 09:45:11;;;;;;;13.40;5.65;;;;;;;29.43;50.28;101561.34;5009313;28;20056;-82
2023/09/08 09:47:36;;;;;;;7.32;4.90;;;;;;;29.64;50.25;101562.88;5039664;28;20068;-83
2023/09/08 09:50:02;;;;;;;9.18;5.68;;;;;;;29.72;50.15;101564.47;5045929;28;20025;-82
2023/09/08 09:52:27;;;;;;;6.15;5.28;;;;;;;29.87;48.88;101557.63;5034481;28;20091;-83
2023/09/08 09:54:54;;;;;;;7.63;5.43;;;;;;;29.76;49.33;101555.66;5043108;28;20029;-83
2023/09/08 09:57:21;;;;;;;9.82;5.20;;;;;;;29.75;49.49;101558.59;5032018;28;20028;-82
2023/09/08 09:59:50;;;;;;;8.60;5.32;;;;;;;29.75;48.92;101564.88;5046504;28;20032;-82
2023/09/08 10:02:19;;;;;;;7.75;5.15;;;;;;;29.80;48.39;101567.72;5028836;28;20087;-82
2023/09/08 10:04:45;;;;;;;5.90;4.75;;;;;;;29.97;49.25;101559.00;5041554;28;20028;-82
2023/09/08 10:07:11;;;;;;;6.95;4.90;;;;;;;29.95;49.48;101554.63;5049495;28;20021;-82
2023/09/08 10:09:36;;;;;;;7.93;5.00;;;;;;;30.19;48.11;101558.38;5046998;28;20431;-83
2023/09/08 10:12:09;;;;;;;6.65;5.30;;;;;;;30.33;48.55;101556.34;5035911;28;20041;-82
2023/09/08 10:14:36;;;;;;;5.68;4.90;;;;;;;30.23;48.26;101564.19;5038188;28;20036;-82
2023/09/08 10:17:02;;;;;;;8.38;5.22;;;;;;;30.30;48.46;101562.22;5040472;28;20068;-82
2023/09/08 10:19:28;;;;;;;7.40;5.43;;;;;;;30.20;48.75;101560.03;5025649;28;20834;-82
2023/09/08 10:22:00;;;;;;;7.07;5.25;;;;;;;30.27;48.75;101562.69;5033984;28;20037;-83
2023/09/08 10:24:27;;;;;;;;;;;;;;;30.51;49.94;101553.63;5037076;28;20022;-83
2023/09/08 10:27:12;;;;;;;9.30;5.28;;;;;;;30.39;50.03;101558.16;5031275;28;19920;-83
2023/09/08 10:29:39;;;;;;;10.05;5.43;;;;;;;30.31;48.01;101555.75;5035686;28;20156;-82
2023/09/08 10:32:06;;;;;;;7.82;5.35;;;;;;;30.25;47.64;101556.66;5037070;28;20079;-82
2023/09/08 10:34:36;;;;;;;9.63;5.60;;;;;;;30.28;48.07;101564.34;5033460;28;20033;-82
2023/09/08 10:37:05;;;;;;;8.60;5.22;;;;;;;30.38;47.91;101553.78;5043903;28;20550;-82
2023/09/08 10:39:36;;;;;;;5.68;5.10;;;;;;;30.49;47.44;101550.31;5047567;28;20037;-81
2023/09/08 10:42:19;;;;;;;9.75;4.75;;;;;;;30.63;48.48;101550.16;5048165;28;20204;-82
2023/09/08 10:44:47;;;;;;;8.25;4.65;;;;;;;30.83;48.48;101550.75;5040921;28;20052;-82
2023/09/08 10:47:14;;;;;;;7.15;4.97;;;;;;;30.93;47.92;101551.00;5027713;28;20041;-81
2023/09/08 10:49:40;;;;;;;6.72;5.28;;;;;;;30.90;46.91;101545.22;5048078;28;20017;-81
2023/09/08 10:52:11;;;;;;;6.10;4.80;;;;;;;30.97;47.72;101546.78;5032645;28;20112;-82
2023/09/08 10:54:48;;;;;;;9.27;5.20;;;;;;;31.08;47.19;101547.84;5046753;28;20036;-81
2023/09/08 10:57:15;;;;;;;6.30;5.20;;;;;;;31.01;46.89;101549.84;5049344;28;20358;-82
2023/09/08 11:00:12;;;;;;;8.45;4.93;;;;;;;31.22;47.60;101543.06;5034066;28;20477;-82
2023/09/08 11:02:50;;;;;;;8.15;4.78;;;;;;;31.15;48.11;101541.28;5029995;28;20108;-82
2023/09/08 11:05:16;;;;;;;5.50;4.93;;;;;;;31.40;47.23;101545.72;5038546;28;20029;-82
2023/09/08 11:07:43;;;;;;;5.50;5.00;;;;;;;31.30;45.65;101540.84;5047567;28;20511;-82
2023/09/08 11:10:10;;;;;;;6.72;5.22;;;;;;;31.39;46.05;101544.06;5041251;28;20030;-82
2023/09/08 11:12:35;;;;;;;8.80;5.35;;;;;;;31.65;45.71;101546.34;5045656;28;20381;-82
2023/09/08 11:15:05;;;;;;;5.93;4.95;;;;;;;31.81;44.70;101538.56;5029821;28;20196;-82
2023/09/08 11:17:31;;;;;;;12.68;5.20;;;;;;;31.69;46.02;101543.97;5039072;28;20033;-82